sensor_id;sensor_type;location;lat;lon;timestamp;P1;durP1;ratioP1;P2;durP2;ratioP2
60969;SDS011;46841;48.938;9.502;2023-02-10T00:03:44;69.85;;;26.27;;
60969;SDS011;46841;48.938;9.502;2023-02-10T00:06:10;80.78;;;28.35;;
60969;SDS011;46841;48.938;9.502;2023-02-10T00:08:36;71.53;;;28.40;;
60969;SDS011;46841;48.938;9.502;2023-02-10T00:11:06;75.88;;;27.30;;
60969;SDS011;46841;48.938;9.502;2023-02-10T00:13:31;75.57;;;27.50;;
60969;SDS011;46841;48.938;9.502;2023-02-10T00:15:57;85.30;;;30.25;;
60969;SDS011;46841;48.938;9.502;2023-02-10T00:18:22;81.95;;;28.55;;
60969;SDS011;46841;48.938;9.502;2023-02-10T00:20:48;78.38;;;27.05;;
60969;SDS011;46841;48.938;9.502;2023-02-10T00:23:13;71.43;;;26.45;;
60969;SDS011;46841;48.938;9.502;2023-02-10T00:25:38;70.30;;;25.80;;
60969;SDS011;46841;48.938;9.502;2023-02-10T00:28:04;64.38;;;24.83;;
60969;SDS011;46841;48.938;9.502;2023-02-10T00:30:29;62.97;;;25.48;;
60969;SDS011;46841;48.938;9.502;2023-02-10T00:32:55;68.07;;;26.08;;
60969;SDS011;46841;48.938;9.502;2023-02-10T00:35:20;78.32;;;29.27;;
60969;SDS011;46841;48.938;9.502;2023-02-10T00:37:45;81.75;;;30.58;;
60969;SDS011;46841;48.938;9.502;2023-02-10T00:40:12;86.83;;;31.20;;
60969;SDS011;46841;48.938;9.502;2023-02-10T00:42:37;85.93;;;29.00;;
60969;SDS011;46841;48.938;9.502;2023-02-10T00:45:03;77.90;;;29.98;;
60969;SDS011;46841;48.938;9.502;2023-02-10T00:47:29;61.63;;;26.70;;
60969;SDS011;46841;48.938;9.502;2023-02-10T00:49:54;69.88;;;27.50;;
60969;SDS011;46841;48.938;9.502;2023-02-10T00:52:21;64.90;;;25.88;;
60969;SDS011;46841;48.938;9.502;2023-02-10T00:54:46;69.82;;;25.92;;
60969;SDS011;46841;48.938;9.502;2023-02-10T00:57:11;65.40;;;24.55;;
60969;SDS011;46841;48.938;9.502;2023-02-10T00:59:37;67.72;;;24.55;;
60969;SDS011;46841;48.938;9.502;2023-02-10T01:02:02;63.50;;;23.88;;
60969;SDS011;46841;48.938;9.502;2023-02-10T01:04:27;72.63;;;26.23;;
60969;SDS011;46841;48.938;9.502;2023-02-10T01:06:53;71.80;;;25.75;;
60969;SDS011;46841;48.938;9.502;2023-02-10T01:09:19;65.90;;;25.58;;
60969;SDS011;46841;48.938;9.502;2023-02-10T01:11:44;72.30;;;28.27;;
60969;SDS011;46841;48.938;9.502;2023-02-10T01:14:09;72.82;;;27.40;;
60969;SDS011;46841;48.938;9.502;2023-02-10T01:16:35;80.70;;;28.05;;
60969;SDS011;46841;48.938;9.502;2023-02-10T01:19:00;85.85;;;29.48;;
60969;SDS011;46841;48.938;9.502;2023-02-10T01:21:26;80.03;;;29.42;;
60969;SDS011;46841;48.938;9.502;2023-02-10T01:23:51;75.60;;;28.10;;
60969;SDS011;46841;48.938;9.502;2023-02-10T01:26:16;82.28;;;28.08;;
60969;SDS011;46841;48.938;9.502;2023-02-10T01:28:42;66.30;;;26.80;;
60969;SDS011;46841;48.938;9.502;2023-02-10T01:31:08;77.53;;;26.98;;
60969;SDS011;46841;48.938;9.502;2023-02-10T01:33:35;70.93;;;25.83;;
60969;SDS011;46841;48.938;9.502;2023-02-10T01:36:04;79.30;;;28.67;;
60969;SDS011;46841;48.938;9.502;2023-02-10T01:38:30;70.22;;;25.98;;
60969;SDS011;46841;48.938;9.502;2023-02-10T01:40:55;72.28;;;25.13;;
60969;SDS011;46841;48.938;9.502;2023-02-10T01:43:20;64.03;;;24.35;;
60969;SDS011;46841;48.938;9.502;2023-02-10T01:45:46;63.88;;;25.45;;
60969;SDS011;46841;48.938;9.502;2023-02-10T01:48:11;65.55;;;24.27;;
60969;SDS011;46841;48.938;9.502;2023-02-10T01:50:38;77.15;;;26.85;;
60969;SDS011;46841;48.938;9.502;2023-02-10T01:53:04;66.93;;;27.63;;
60969;SDS011;46841;48.938;9.502;2023-02-10T01:55:31;67.00;;;23.25;;
60969;SDS011;46841;48.938;9.502;2023-02-10T01:57:59;65.15;;;23.25;;
60969;SDS011;46841;48.938;9.502;2023-02-10T02:00:26;61.33;;;25.48;;
60969;SDS011;46841;48.938;9.502;2023-02-10T02:02:51;62.85;;;24.52;;
60969;SDS011;46841;48.938;9.502;2023-02-10T02:05:19;61.92;;;24.48;;
60969;SDS011;46841;48.938;9.502;2023-02-10T02:10:13;55.13;;;21.98;;
60969;SDS011;46841;48.938;9.502;2023-02-10T02:12:50;66.85;;;23.73;;
60969;SDS011;46841;48.938;9.502;2023-02-10T02:35:44;80.80;;;26.05;;
60969;SDS011;46841;48.938;9.502;2023-02-10T02:38:10;69.70;;;26.00;;
60969;SDS011;46841;48.938;9.502;2023-02-10T02:40:36;79.70;;;26.15;;
60969;SDS011;46841;48.938;9.502;2023-02-10T02:43:01;70.05;;;26.52;;
60969;SDS011;46841;48.938;9.502;2023-02-10T02:45:32;70.35;;;26.05;;
60969;SDS011;46841;48.938;9.502;2023-02-10T02:50:27;63.15;;;25.35;;
60969;SDS011;46841;48.938;9.502;2023-02-10T03:00:57;77.28;;;26.48;;
60969;SDS011;46841;48.938;9.502;2023-02-10T03:03:32;68.82;;;25.50;;
60969;SDS011;46841;48.938;9.502;2023-02-10T03:05:59;73.22;;;24.58;;
60969;SDS011;46841;48.938;9.502;2023-02-10T03:08:24;69.82;;;25.10;;
60969;SDS011;46841;48.938;9.502;2023-02-10T03:10:50;68.22;;;24.92;;
60969;SDS011;46841;48.938;9.502;2023-02-10T03:13:16;59.20;;;24.38;;
60969;SDS011;46841;48.938;9.502;2023-02-10T03:15:41;60.10;;;22.83;;
60969;SDS011;46841;48.938;9.502;2023-02-10T03:18:07;60.75;;;24.92;;
60969;SDS011;46841;48.938;9.502;2023-02-10T03:20:32;67.38;;;24.73;;
60969;SDS011;46841;48.938;9.502;2023-02-10T03:22:58;64.30;;;24.20;;
60969;SDS011;46841;48.938;9.502;2023-02-10T03:25:23;62.85;;;24.20;;
60969;SDS011;46841;48.938;9.502;2023-02-10T03:27:48;74.78;;;25.05;;
60969;SDS011;46841;48.938;9.502;2023-02-10T03:30:13;68.40;;;25.55;;
60969;SDS011;46841;48.938;9.502;2023-02-10T03:32:39;65.70;;;25.45;;
60969;SDS011;46841;48.938;9.502;2023-02-10T03:35:04;61.15;;;25.30;;
60969;SDS011;46841;48.938;9.502;2023-02-10T03:37:30;60.92;;;24.33;;
60969;SDS011;46841;48.938;9.502;2023-02-10T03:39:55;68.00;;;25.70;;
60969;SDS011;46841;48.938;9.502;2023-02-10T03:42:20;69.60;;;25.27;;
60969;SDS011;46841;48.938;9.502;2023-02-10T03:44:45;65.60;;;25.50;;
60969;SDS011;46841;48.938;9.502;2023-02-10T03:47:11;61.33;;;25.05;;
60969;SDS011;46841;48.938;9.502;2023-02-10T03:49:36;75.15;;;26.85;;
60969;SDS011;46841;48.938;9.502;2023-02-10T03:52:01;63.67;;;25.48;;
60969;SDS011;46841;48.938;9.502;2023-02-10T03:54:27;67.90;;;25.38;;
60969;SDS011;46841;48.938;9.502;2023-02-10T03:56:52;61.25;;;22.48;;
60969;SDS011;46841;48.938;9.502;2023-02-10T03:59:18;59.35;;;23.38;;
60969;SDS011;46841;48.938;9.502;2023-02-10T04:01:43;73.15;;;23.65;;
60969;SDS011;46841;48.938;9.502;2023-02-10T04:04:08;61.35;;;24.65;;
60969;SDS011;46841;48.938;9.502;2023-02-10T04:06:33;63.35;;;23.73;;
60969;SDS011;46841;48.938;9.502;2023-02-10T04:08:59;63.45;;;22.58;;
60969;SDS011;46841;48.938;9.502;2023-02-10T04:11:24;48.05;;;21.25;;
60969;SDS011;46841;48.938;9.502;2023-02-10T04:13:50;66.80;;;24.33;;
60969;SDS011;46841;48.938;9.502;2023-02-10T04:16:16;60.15;;;24.00;;
60969;SDS011;46841;48.938;9.502;2023-02-10T04:18:41;72.20;;;24.93;;
60969;SDS011;46841;48.938;9.502;2023-02-10T04:21:07;59.60;;;22.55;;
60969;SDS011;46841;48.938;9.502;2023-02-10T04:23:33;62.15;;;22.60;;
60969;SDS011;46841;48.938;9.502;2023-02-10T04:25:59;64.72;;;22.98;;
60969;SDS011;46841;48.938;9.502;2023-02-10T04:28:24;63.60;;;22.20;;
60969;SDS011;46841;48.938;9.502;2023-02-10T04:30:50;61.58;;;23.35;;
60969;SDS011;46841;48.938;9.502;2023-02-10T04:33:15;51.67;;;21.00;;
60969;SDS011;46841;48.938;9.502;2023-02-10T04:35:41;70.93;;;23.92;;
60969;SDS011;46841;48.938;9.502;2023-02-10T04:38:06;66.47;;;22.58;;
60969;SDS011;46841;48.938;9.502;2023-02-10T04:40:31;56.28;;;22.42;;
60969;SDS011;46841;48.938;9.502;2023-02-10T04:42:57;64.00;;;22.23;;
60969;SDS011;46841;48.938;9.502;2023-02-10T04:45:22;61.85;;;22.52;;
60969;SDS011;46841;48.938;9.502;2023-02-10T04:47:47;61.58;;;22.02;;
60969;SDS011;46841;48.938;9.502;2023-02-10T04:50:13;67.60;;;23.48;;
60969;SDS011;46841;48.938;9.502;2023-02-10T04:52:38;61.92;;;21.95;;
60969;SDS011;46841;48.938;9.502;2023-02-10T04:55:03;57.22;;;21.73;;
60969;SDS011;46841;48.938;9.502;2023-02-10T04:57:29;64.10;;;24.13;;
60969;SDS011;46841;48.938;9.502;2023-02-10T04:59:54;81.75;;;28.83;;
60969;SDS011;46841;48.938;9.502;2023-02-10T05:02:19;81.55;;;27.92;;
60969;SDS011;46841;48.938;9.502;2023-02-10T05:04:45;79.90;;;28.67;;
60969;SDS011;46841;48.938;9.502;2023-02-10T05:07:10;66.57;;;24.73;;
60969;SDS011;46841;48.938;9.502;2023-02-10T05:09:36;69.50;;;25.25;;
60969;SDS011;46841;48.938;9.502;2023-02-10T05:12:01;66.28;;;24.20;;
60969;SDS011;46841;48.938;9.502;2023-02-10T05:14:26;58.20;;;21.25;;
60969;SDS011;46841;48.938;9.502;2023-02-10T05:16:52;62.58;;;23.80;;
60969;SDS011;46841;48.938;9.502;2023-02-10T05:19:17;76.57;;;26.95;;
60969;SDS011;46841;48.938;9.502;2023-02-10T05:21:42;66.85;;;25.17;;
60969;SDS011;46841;48.938;9.502;2023-02-10T05:24:07;57.92;;;22.80;;
60969;SDS011;46841;48.938;9.502;2023-02-10T05:26:33;56.30;;;23.23;;
60969;SDS011;46841;48.938;9.502;2023-02-10T05:28:58;58.75;;;23.13;;
60969;SDS011;46841;48.938;9.502;2023-02-10T05:31:23;67.20;;;23.77;;
60969;SDS011;46841;48.938;9.502;2023-02-10T05:33:49;70.45;;;26.13;;
60969;SDS011;46841;48.938;9.502;2023-02-10T05:36:14;62.88;;;22.92;;
60969;SDS011;46841;48.938;9.502;2023-02-10T05:38:39;60.30;;;24.55;;
60969;SDS011;46841;48.938;9.502;2023-02-10T05:41:24;63.95;;;23.60;;
60969;SDS011;46841;48.938;9.502;2023-02-10T05:43:50;64.88;;;23.35;;
60969;SDS011;46841;48.938;9.502;2023-02-10T05:46:15;70.47;;;25.15;;
60969;SDS011;46841;48.938;9.502;2023-02-10T05:48:40;69.72;;;24.73;;
60969;SDS011;46841;48.938;9.502;2023-02-10T05:51:06;63.65;;;24.35;;
60969;SDS011;46841;48.938;9.502;2023-02-10T05:53:31;76.50;;;25.23;;
60969;SDS011;46841;48.938;9.502;2023-02-10T05:55:56;69.88;;;24.20;;
60969;SDS011;46841;48.938;9.502;2023-02-10T05:58:21;65.80;;;25.73;;
60969;SDS011;46841;48.938;9.502;2023-02-10T06:00:47;65.03;;;22.58;;
60969;SDS011;46841;48.938;9.502;2023-02-10T06:03:12;63.67;;;24.02;;
60969;SDS011;46841;48.938;9.502;2023-02-10T06:05:37;69.10;;;22.90;;
60969;SDS011;46841;48.938;9.502;2023-02-10T06:08:04;67.90;;;24.58;;
60969;SDS011;46841;48.938;9.502;2023-02-10T06:10:29;66.70;;;22.88;;
60969;SDS011;46841;48.938;9.502;2023-02-10T06:12:54;64.05;;;22.58;;
60969;SDS011;46841;48.938;9.502;2023-02-10T06:15:20;66.72;;;22.83;;
60969;SDS011;46841;48.938;9.502;2023-02-10T06:17:45;70.13;;;22.75;;
60969;SDS011;46841;48.938;9.502;2023-02-10T06:20:10;58.10;;;20.75;;
60969;SDS011;46841;48.938;9.502;2023-02-10T06:22:36;61.63;;;23.67;;
60969;SDS011;46841;48.938;9.502;2023-02-10T06:25:01;71.43;;;26.08;;
60969;SDS011;46841;48.938;9.502;2023-02-10T06:27:26;61.60;;;21.73;;
60969;SDS011;46841;48.938;9.502;2023-02-10T06:29:52;70.55;;;24.17;;
60969;SDS011;46841;48.938;9.502;2023-02-10T06:32:17;65.60;;;23.45;;
60969;SDS011;46841;48.938;9.502;2023-02-10T06:34:42;52.95;;;23.42;;
60969;SDS011;46841;48.938;9.502;2023-02-10T06:37:08;61.50;;;22.85;;
60969;SDS011;46841;48.938;9.502;2023-02-10T06:39:33;72.95;;;23.70;;
60969;SDS011;46841;48.938;9.502;2023-02-10T06:41:58;66.97;;;23.52;;
60969;SDS011;46841;48.938;9.502;2023-02-10T06:44:24;63.10;;;23.02;;
60969;SDS011;46841;48.938;9.502;2023-02-10T06:46:50;68.75;;;24.05;;
60969;SDS011;46841;48.938;9.502;2023-02-10T06:49:15;66.40;;;23.67;;
60969;SDS011;46841;48.938;9.502;2023-02-10T06:51:40;55.05;;;21.05;;
60969;SDS011;46841;48.938;9.502;2023-02-10T06:54:06;61.83;;;22.50;;
60969;SDS011;46841;48.938;9.502;2023-02-10T06:56:31;67.78;;;22.90;;
60969;SDS011;46841;48.938;9.502;2023-02-10T06:58:56;53.22;;;21.88;;
60969;SDS011;46841;48.938;9.502;2023-02-10T07:01:21;64.20;;;22.20;;
60969;SDS011;46841;48.938;9.502;2023-02-10T07:03:47;61.38;;;24.48;;
60969;SDS011;46841;48.938;9.502;2023-02-10T07:06:12;57.33;;;22.42;;
60969;SDS011;46841;48.938;9.502;2023-02-10T07:08:37;60.22;;;21.92;;
60969;SDS011;46841;48.938;9.502;2023-02-10T07:11:03;59.65;;;21.90;;
60969;SDS011;46841;48.938;9.502;2023-02-10T07:13:28;61.80;;;23.90;;
60969;SDS011;46841;48.938;9.502;2023-02-10T07:15:53;65.80;;;23.80;;
60969;SDS011;46841;48.938;9.502;2023-02-10T07:18:19;62.15;;;23.88;;
60969;SDS011;46841;48.938;9.502;2023-02-10T07:20:44;75.53;;;24.17;;
60969;SDS011;46841;48.938;9.502;2023-02-10T07:23:10;72.82;;;23.90;;
60969;SDS011;46841;48.938;9.502;2023-02-10T07:25:35;58.50;;;23.88;;
60969;SDS011;46841;48.938;9.502;2023-02-10T07:28:00;69.43;;;25.45;;
60969;SDS011;46841;48.938;9.502;2023-02-10T07:30:26;54.35;;;23.67;;
60969;SDS011;46841;48.938;9.502;2023-02-10T07:32:52;63.10;;;24.00;;
60969;SDS011;46841;48.938;9.502;2023-02-10T07:35:17;69.63;;;25.00;;
60969;SDS011;46841;48.938;9.502;2023-02-10T07:37:43;77.32;;;27.45;;
60969;SDS011;46841;48.938;9.502;2023-02-10T07:40:09;81.47;;;28.75;;
60969;SDS011;46841;48.938;9.502;2023-02-10T07:42:34;72.97;;;28.77;;
60969;SDS011;46841;48.938;9.502;2023-02-10T07:45:19;85.90;;;31.67;;
60969;SDS011;46841;48.938;9.502;2023-02-10T07:47:45;95.85;;;34.67;;
60969;SDS011;46841;48.938;9.502;2023-02-10T07:50:10;92.78;;;32.22;;
60969;SDS011;46841;48.938;9.502;2023-02-10T07:52:38;98.00;;;33.00;;
60969;SDS011;46841;48.938;9.502;2023-02-10T07:55:09;105.82;;;36.05;;
60969;SDS011;46841;48.938;9.502;2023-02-10T07:57:36;107.63;;;34.63;;
60969;SDS011;46841;48.938;9.502;2023-02-10T08:00:03;104.75;;;35.33;;
60969;SDS011;46841;48.938;9.502;2023-02-10T08:02:38;101.07;;;36.42;;
60969;SDS011;46841;48.938;9.502;2023-02-10T08:05:03;118.60;;;41.45;;
60969;SDS011;46841;48.938;9.502;2023-02-10T08:07:28;141.63;;;41.80;;
60969;SDS011;46841;48.938;9.502;2023-02-10T08:09:54;122.38;;;38.60;;
60969;SDS011;46841;48.938;9.502;2023-02-10T08:12:19;121.13;;;40.17;;
60969;SDS011;46841;48.938;9.502;2023-02-10T08:14:45;199.82;;;55.53;;
60969;SDS011;46841;48.938;9.502;2023-02-10T08:17:10;131.57;;;41.83;;
60969;SDS011;46841;48.938;9.502;2023-02-10T08:19:36;123.75;;;41.38;;
60969;SDS011;46841;48.938;9.502;2023-02-10T08:22:02;114.35;;;38.53;;
60969;SDS011;46841;48.938;9.502;2023-02-10T08:24:27;117.22;;;40.13;;
60969;SDS011;46841;48.938;9.502;2023-02-10T08:26:52;115.50;;;40.28;;
60969;SDS011;46841;48.938;9.502;2023-02-10T08:29:18;97.05;;;36.75;;
60969;SDS011;46841;48.938;9.502;2023-02-10T08:31:43;107.32;;;38.95;;
60969;SDS011;46841;48.938;9.502;2023-02-10T08:34:16;113.60;;;38.17;;
60969;SDS011;46841;48.938;9.502;2023-02-10T08:36:41;91.95;;;34.13;;
60969;SDS011;46841;48.938;9.502;2023-02-10T08:39:07;109.03;;;38.20;;
60969;SDS011;46841;48.938;9.502;2023-02-10T08:41:33;110.15;;;43.15;;
60969;SDS011;46841;48.938;9.502;2023-02-10T08:43:58;147.50;;;53.65;;
60969;SDS011;46841;48.938;9.502;2023-02-10T08:46:23;127.80;;;48.53;;
60969;SDS011;46841;48.938;9.502;2023-02-10T08:48:49;120.57;;;45.15;;
60969;SDS011;46841;48.938;9.502;2023-02-10T08:51:15;118.80;;;44.40;;
60969;SDS011;46841;48.938;9.502;2023-02-10T08:53:40;119.68;;;43.72;;
60969;SDS011;46841;48.938;9.502;2023-02-10T08:56:07;125.07;;;42.58;;
60969;SDS011;46841;48.938;9.502;2023-02-10T08:58:33;124.45;;;42.90;;
60969;SDS011;46841;48.938;9.502;2023-02-10T09:00:58;122.05;;;43.15;;
60969;SDS011;46841;48.938;9.502;2023-02-10T09:03:23;127.43;;;44.97;;
60969;SDS011;46841;48.938;9.502;2023-02-10T09:05:49;110.25;;;40.05;;
60969;SDS011;46841;48.938;9.502;2023-02-10T09:08:15;122.18;;;44.00;;
60969;SDS011;46841;48.938;9.502;2023-02-10T09:10:41;127.18;;;46.88;;
60969;SDS011;46841;48.938;9.502;2023-02-10T09:13:06;127.28;;;47.15;;
60969;SDS011;46841;48.938;9.502;2023-02-10T09:15:36;133.57;;;47.50;;
60969;SDS011;46841;48.938;9.502;2023-02-10T09:18:01;131.98;;;46.20;;
60969;SDS011;46841;48.938;9.502;2023-02-10T09:20:27;133.27;;;47.25;;
60969;SDS011;46841;48.938;9.502;2023-02-10T09:22:52;130.02;;;48.03;;
60969;SDS011;46841;48.938;9.502;2023-02-10T09:25:17;132.75;;;49.85;;
60969;SDS011;46841;48.938;9.502;2023-02-10T09:27:42;135.10;;;50.40;;
60969;SDS011;46841;48.938;9.502;2023-02-10T09:30:08;127.13;;;47.92;;
60969;SDS011;46841;48.938;9.502;2023-02-10T09:32:33;132.57;;;50.85;;
60969;SDS011;46841;48.938;9.502;2023-02-10T09:34:59;140.52;;;50.40;;
60969;SDS011;46841;48.938;9.502;2023-02-10T09:37:24;120.22;;;45.13;;
60969;SDS011;46841;48.938;9.502;2023-02-10T09:39:49;118.22;;;47.63;;
60969;SDS011;46841;48.938;9.502;2023-02-10T09:45:02;118.25;;;44.03;;
60969;SDS011;46841;48.938;9.502;2023-02-10T09:47:36;126.20;;;44.10;;
60969;SDS011;46841;48.938;9.502;2023-02-10T09:57:45;139.32;;;49.40;;
60969;SDS011;46841;48.938;9.502;2023-02-10T10:02:46;135.88;;;46.20;;
60969;SDS011;46841;48.938;9.502;2023-02-10T10:05:16;175.65;;;58.10;;
60969;SDS011;46841;48.938;9.502;2023-02-10T10:07:48;196.02;;;59.28;;
60969;SDS011;46841;48.938;9.502;2023-02-10T10:10:16;135.50;;;50.55;;
60969;SDS011;46841;48.938;9.502;2023-02-10T10:12:43;118.53;;;43.45;;
60969;SDS011;46841;48.938;9.502;2023-02-10T10:15:15;126.38;;;45.10;;
60969;SDS011;46841;48.938;9.502;2023-02-10T10:17:44;110.70;;;42.55;;
60969;SDS011;46841;48.938;9.502;2023-02-10T10:20:31;109.57;;;40.15;;
60969;SDS011;46841;48.938;9.502;2023-02-10T10:33:20;100.05;;;37.75;;
60969;SDS011;46841;48.938;9.502;2023-02-10T10:35:47;111.70;;;40.15;;
60969;SDS011;46841;48.938;9.502;2023-02-10T10:38:16;107.38;;;41.00;;
60969;SDS011;46841;48.938;9.502;2023-02-10T10:40:43;97.85;;;37.60;;
60969;SDS011;46841;48.938;9.502;2023-02-10T10:43:11;95.95;;;35.17;;
60969;SDS011;46841;48.938;9.502;2023-02-10T10:45:42;101.18;;;37.03;;
60969;SDS011;46841;48.938;9.502;2023-02-10T10:48:21;97.20;;;35.78;;
60969;SDS011;46841;48.938;9.502;2023-02-10T10:50:55;98.22;;;35.75;;
60969;SDS011;46841;48.938;9.502;2023-02-10T10:58:39;95.28;;;35.88;;
60969;SDS011;46841;48.938;9.502;2023-02-10T11:01:05;90.53;;;34.65;;
60969;SDS011;46841;48.938;9.502;2023-02-10T11:03:31;91.80;;;33.90;;
60969;SDS011;46841;48.938;9.502;2023-02-10T11:08:38;84.82;;;32.55;;
60969;SDS011;46841;48.938;9.502;2023-02-10T11:11:07;94.70;;;32.15;;
60969;SDS011;46841;48.938;9.502;2023-02-10T11:13:35;80.32;;;32.25;;
60969;SDS011;46841;48.938;9.502;2023-02-10T11:18:32;87.65;;;31.20;;
60969;SDS011;46841;48.938;9.502;2023-02-10T11:23:23;86.15;;;33.42;;
60969;SDS011;46841;48.938;9.502;2023-02-10T11:28:23;78.38;;;31.42;;
60969;SDS011;46841;48.938;9.502;2023-02-10T11:30:54;76.30;;;32.42;;
60969;SDS011;46841;48.938;9.502;2023-02-10T11:33:24;84.05;;;31.65;;
60969;SDS011;46841;48.938;9.502;2023-02-10T11:35:52;75.93;;;29.88;;
60969;SDS011;46841;48.938;9.502;2023-02-10T11:38:20;77.38;;;30.98;;
60969;SDS011;46841;48.938;9.502;2023-02-10T11:40:56;72.70;;;29.67;;
60969;SDS011;46841;48.938;9.502;2023-02-10T11:43:25;78.75;;;31.27;;
60969;SDS011;46841;48.938;9.502;2023-02-10T11:45:56;73.32;;;28.55;;
60969;SDS011;46841;48.938;9.502;2023-02-10T11:48:22;76.78;;;28.52;;
60969;SDS011;46841;48.938;9.502;2023-02-10T11:50:48;68.07;;;28.35;;
60969;SDS011;46841;48.938;9.502;2023-02-10T11:53:25;65.10;;;28.00;;
60969;SDS011;46841;48.938;9.502;2023-02-10T11:55:53;70.28;;;28.73;;
60969;SDS011;46841;48.938;9.502;2023-02-10T12:01:20;68.07;;;28.35;;
60969;SDS011;46841;48.938;9.502;2023-02-10T12:09:48;68.45;;;29.90;;
60969;SDS011;46841;48.938;9.502;2023-02-10T12:16:42;62.17;;;28.58;;
60969;SDS011;46841;48.938;9.502;2023-02-10T12:19:29;57.65;;;28.52;;
60969;SDS011;46841;48.938;9.502;2023-02-10T12:22:02;62.00;;;26.88;;
60969;SDS011;46841;48.938;9.502;2023-02-10T12:32:44;60.78;;;29.63;;
60969;SDS011;46841;48.938;9.502;2023-02-10T12:35:22;56.15;;;28.60;;
60969;SDS011;46841;48.938;9.502;2023-02-10T12:53:25;77.72;;;32.03;;
60969;SDS011;46841;48.938;9.502;2023-02-10T12:55:56;61.35;;;29.38;;
60969;SDS011;46841;48.938;9.502;2023-02-10T12:58:29;54.00;;;28.23;;
60969;SDS011;46841;48.938;9.502;2023-02-10T13:01:05;52.35;;;27.17;;
60969;SDS011;46841;48.938;9.502;2023-02-10T13:03:32;48.90;;;26.92;;
60969;SDS011;46841;48.938;9.502;2023-02-10T13:06:44;61.03;;;28.88;;
60969;SDS011;46841;48.938;9.502;2023-02-10T13:08:51;54.03;;;27.83;;
60969;SDS011;46841;48.938;9.502;2023-02-10T13:11:25;49.90;;;27.05;;
60969;SDS011;46841;48.938;9.502;2023-02-10T13:13:52;47.42;;;26.10;;
60969;SDS011;46841;48.938;9.502;2023-02-10T13:16:20;49.13;;;25.02;;
60969;SDS011;46841;48.938;9.502;2023-02-10T13:18:53;42.55;;;25.08;;
60969;SDS011;46841;48.938;9.502;2023-02-10T13:21:24;49.03;;;24.63;;
60969;SDS011;46841;48.938;9.502;2023-02-10T13:29:17;55.47;;;26.70;;
60969;SDS011;46841;48.938;9.502;2023-02-10T13:36:40;48.47;;;26.25;;
60969;SDS011;46841;48.938;9.502;2023-02-10T13:39:15;55.80;;;27.15;;
60969;SDS011;46841;48.938;9.502;2023-02-10T13:41:41;42.92;;;25.58;;
60969;SDS011;46841;48.938;9.502;2023-02-10T13:46:45;45.88;;;24.48;;
60969;SDS011;46841;48.938;9.502;2023-02-10T13:49:14;42.40;;;25.02;;
60969;SDS011;46841;48.938;9.502;2023-02-10T13:51:40;42.20;;;25.05;;
60969;SDS011;46841;48.938;9.502;2023-02-10T13:54:05;43.92;;;24.30;;
60969;SDS011;46841;48.938;9.502;2023-02-10T13:56:32;48.35;;;25.90;;
60969;SDS011;46841;48.938;9.502;2023-02-10T13:59:05;47.00;;;25.02;;
60969;SDS011;46841;48.938;9.502;2023-02-10T14:03:57;51.67;;;26.15;;
60969;SDS011;46841;48.938;9.502;2023-02-10T14:06:35;43.78;;;25.70;;
60969;SDS011;46841;48.938;9.502;2023-02-10T14:09:05;44.42;;;25.60;;
60969;SDS011;46841;48.938;9.502;2023-02-10T14:11:41;40.30;;;23.60;;
60969;SDS011;46841;48.938;9.502;2023-02-10T14:16:52;38.38;;;22.08;;
60969;SDS011;46841;48.938;9.502;2023-02-10T14:19:45;44.28;;;25.25;;
60969;SDS011;46841;48.938;9.502;2023-02-10T14:24:55;38.63;;;23.52;;
60969;SDS011;46841;48.938;9.502;2023-02-10T14:27:23;37.00;;;22.67;;
60969;SDS011;46841;48.938;9.502;2023-02-10T14:29:55;45.22;;;23.83;;
60969;SDS011;46841;48.938;9.502;2023-02-10T14:32:20;43.17;;;24.13;;
60969;SDS011;46841;48.938;9.502;2023-02-10T14:37:38;40.40;;;22.13;;
60969;SDS011;46841;48.938;9.502;2023-02-10T14:40:03;39.78;;;21.80;;
60969;SDS011;46841;48.938;9.502;2023-02-10T14:42:29;40.63;;;23.35;;
60969;SDS011;46841;48.938;9.502;2023-02-10T14:44:56;37.50;;;23.13;;
60969;SDS011;46841;48.938;9.502;2023-02-10T14:47:23;38.90;;;22.75;;
60969;SDS011;46841;48.938;9.502;2023-02-10T14:49:53;46.08;;;24.33;;
60969;SDS011;46841;48.938;9.502;2023-02-10T14:54:47;42.60;;;25.63;;
60969;SDS011;46841;48.938;9.502;2023-02-10T14:57:12;45.00;;;24.52;;
60969;SDS011;46841;48.938;9.502;2023-02-10T15:02:07;41.23;;;22.73;;
60969;SDS011;46841;48.938;9.502;2023-02-10T15:04:35;48.97;;;23.88;;
60969;SDS011;46841;48.938;9.502;2023-02-10T15:07:00;44.15;;;23.38;;
60969;SDS011;46841;48.938;9.502;2023-02-10T15:09:33;44.60;;;23.38;;
60969;SDS011;46841;48.938;9.502;2023-02-10T15:12:00;45.60;;;24.40;;
60969;SDS011;46841;48.938;9.502;2023-02-10T15:17:14;46.85;;;23.50;;
60969;SDS011;46841;48.938;9.502;2023-02-10T15:22:35;48.65;;;24.65;;
60969;SDS011;46841;48.938;9.502;2023-02-10T15:27:45;46.97;;;23.42;;
60969;SDS011;46841;48.938;9.502;2023-02-10T15:30:18;46.15;;;23.77;;
60969;SDS011;46841;48.938;9.502;2023-02-10T15:32:50;45.63;;;23.80;;
60969;SDS011;46841;48.938;9.502;2023-02-10T15:35:16;46.67;;;25.73;;
60969;SDS011;46841;48.938;9.502;2023-02-10T15:37:41;49.33;;;25.67;;
60969;SDS011;46841;48.938;9.502;2023-02-10T15:40:17;49.67;;;24.98;;
60969;SDS011;46841;48.938;9.502;2023-02-10T15:43:03;45.42;;;23.88;;
60969;SDS011;46841;48.938;9.502;2023-02-10T15:45:29;49.60;;;23.77;;
60969;SDS011;46841;48.938;9.502;2023-02-10T15:48:01;43.72;;;22.48;;
60969;SDS011;46841;48.938;9.502;2023-02-10T15:50:30;53.70;;;23.55;;
60969;SDS011;46841;48.938;9.502;2023-02-10T15:52:55;55.45;;;24.38;;
60969;SDS011;46841;48.938;9.502;2023-02-10T15:55:24;52.33;;;22.95;;
60969;SDS011;46841;48.938;9.502;2023-02-10T15:57:50;48.45;;;22.77;;
60969;SDS011;46841;48.938;9.502;2023-02-10T16:00:20;50.60;;;23.98;;
60969;SDS011;46841;48.938;9.502;2023-02-10T16:02:45;49.10;;;23.05;;
60969;SDS011;46841;48.938;9.502;2023-02-10T16:05:11;52.25;;;24.02;;
60969;SDS011;46841;48.938;9.502;2023-02-10T16:07:36;54.30;;;25.52;;
60969;SDS011;46841;48.938;9.502;2023-02-10T16:10:01;47.17;;;22.48;;
60969;SDS011;46841;48.938;9.502;2023-02-10T16:12:30;50.85;;;25.20;;
60969;SDS011;46841;48.938;9.502;2023-02-10T16:14:55;53.33;;;23.58;;
60969;SDS011;46841;48.938;9.502;2023-02-10T16:17:27;45.88;;;21.38;;
60969;SDS011;46841;48.938;9.502;2023-02-10T16:19:53;50.90;;;22.50;;
60969;SDS011;46841;48.938;9.502;2023-02-10T16:22:18;51.03;;;23.27;;
60969;SDS011;46841;48.938;9.502;2023-02-10T16:24:44;51.05;;;23.92;;
60969;SDS011;46841;48.938;9.502;2023-02-10T16:27:10;43.50;;;22.23;;
60969;SDS011;46841;48.938;9.502;2023-02-10T16:29:35;46.00;;;21.85;;
60969;SDS011;46841;48.938;9.502;2023-02-10T16:32:01;46.53;;;20.48;;
60969;SDS011;46841;48.938;9.502;2023-02-10T16:36:54;78.28;;;31.90;;
60969;SDS011;46841;48.938;9.502;2023-02-10T16:39:21;70.47;;;31.38;;
60969;SDS011;46841;48.938;9.502;2023-02-10T16:41:49;64.25;;;27.05;;
60969;SDS011;46841;48.938;9.502;2023-02-10T16:44:15;55.85;;;25.70;;
60969;SDS011;46841;48.938;9.502;2023-02-10T16:46:40;58.10;;;25.83;;
60969;SDS011;46841;48.938;9.502;2023-02-10T16:49:06;54.38;;;24.08;;